Terminal Aerodrome Forecast
Issued by NWS

Home | Current Version | Previous Version | Text Only | Print | Product List | Glossary On
Versions: 1 2 3 4 5 6 7 8 9 10 11 12 13 14 15 16 17 18 19 20 21 22 23 24 25 26 27 28 29 30 31 32 33 34 35 36 37 38 39 40 41 42 43 44 45 46
000
FTUS42 KGSP 182300
TAFHKY
TAF
KHKY 182334Z 1900/1924 00000KT P6SM OVC090
     FM190400 00000KT 5SM BR BKN027
     FM190600 00000KT 4SM BR BKN010
     FM191000 03003KT 2SM BR BKN008
     FM191400 08003KT P6SM BKN015
     FM191700 10004KT P6SM BKN022
     FM192200 09006KT P6SM BKN035=

USA.gov is the U.S. government's official web portal to all federal, state and local government web resources and services.